createdAt,value
2023-02-08T00:03:16.169Z,-2.16
2023-02-08T00:08:17.771Z,-2.30
2023-02-08T00:13:20.480Z,-2.38
2023-02-08T00:18:22.625Z,-2.36
2023-02-08T00:23:25.170Z,-2.17
2023-02-08T00:28:26.916Z,-2.31
2023-02-08T00:33:28.475Z,-2.16
2023-02-08T00:38:30.463Z,-2.03
2023-02-08T00:43:32.253Z,-1.45
2023-02-08T00:48:33.940Z,-1.31
2023-02-08T00:53:38.141Z,-1.40
2023-02-08T00:58:40.417Z,-1.41
2023-02-08T01:03:43.124Z,-1.48
2023-02-08T01:08:44.766Z,-1.71
2023-02-08T01:13:46.523Z,-1.94
2023-02-08T01:18:50.260Z,-2.23
2023-02-08T01:23:52.145Z,-2.41
2023-02-08T01:28:55.054Z,-2.37
2023-02-08T01:33:59.010Z,-2.27
2023-02-08T01:39:01.302Z,-2.25
2023-02-08T01:44:09.026Z,-2.41
2023-02-08T01:49:19.495Z,-2.58
2023-02-08T01:54:25.932Z,-2.58
2023-02-08T01:59:40.756Z,-2.44
2023-02-08T02:04:43.963Z,-2.39
2023-02-08T02:10:08.758Z,-2.19
2023-02-08T02:15:11.261Z,-2.27
2023-02-08T02:20:22.697Z,-2.31
2023-02-08T02:25:24.213Z,-2.23
2023-02-08T02:30:47.486Z,-2.01
2023-02-08T02:35:56.972Z,-1.90
2023-02-08T02:41:19.690Z,-1.76
2023-02-08T02:46:31.987Z,-1.76
2023-02-08T02:52:01.824Z,-1.68
2023-02-08T02:57:07.342Z,-1.78
2023-02-08T03:02:10.328Z,-1.79
2023-02-08T03:07:31.123Z,-2.08
2023-02-08T03:12:35.281Z,-1.89
2023-02-08T03:17:58.148Z,-2.05
2023-02-08T03:23:08.283Z,-2.19
2023-02-08T03:28:32.529Z,-1.98
2023-02-08T03:33:42.791Z,-1.85
2023-02-08T03:38:47.965Z,-1.96
2023-02-08T03:44:00.671Z,-2.10
2023-02-08T03:49:19.710Z,-2.24
2023-02-08T03:54:26.370Z,-2.35
2023-02-08T03:59:31.810Z,-2.40
2023-02-08T04:04:36.901Z,-2.45
2023-02-08T04:09:38.990Z,-2.49
2023-02-08T04:14:40.758Z,-2.80
2023-02-08T04:19:42.348Z,-2.99
2023-02-08T04:24:43.916Z,-3.01
2023-02-08T04:29:45.481Z,-3.16
2023-02-08T04:34:46.997Z,-3.18
2023-02-08T04:39:48.612Z,-3.17
2023-02-08T04:44:50.183Z,-3.13
2023-02-08T04:49:51.711Z,-2.94
2023-02-08T04:54:56.009Z,-3.03
2023-02-08T05:00:00.070Z,-2.83
2023-02-08T05:05:02.011Z,-2.61
2023-02-08T05:10:05.080Z,-2.46
2023-02-08T05:15:06.851Z,-2.77
2023-02-08T05:20:09.320Z,-2.73
2023-02-08T05:25:10.921Z,-2.39
2023-02-08T05:30:12.909Z,-2.41
2023-02-08T05:35:14.535Z,-2.43
2023-02-08T05:40:16.239Z,-2.39
2023-02-08T05:45:17.816Z,-2.21
2023-02-08T05:50:19.438Z,-2.01
2023-02-08T05:55:25.383Z,-1.96
2023-02-08T06:00:27.380Z,-1.81
2023-02-08T06:05:29.050Z,-1.85
2023-02-08T06:10:30.621Z,-1.80
2023-02-08T06:15:32.218Z,-1.93
2023-02-08T06:20:33.742Z,-1.99
2023-02-08T06:25:35.418Z,-2.08
2023-02-08T06:30:38.623Z,-2.27
2023-02-08T06:35:40.317Z,-2.30
2023-02-08T06:40:42.372Z,-2.25
2023-02-08T06:45:46.176Z,-2.05
2023-02-08T06:50:47.804Z,-1.94
2023-02-08T06:55:50.078Z,-2.01
2023-02-08T07:00:51.734Z,-2.15
2023-02-08T07:06:04.491Z,-2.06
2023-02-08T07:11:11.769Z,-1.90
2023-02-08T07:16:13.359Z,-1.93
2023-02-08T07:21:15.145Z,-1.85
2023-02-08T07:26:16.678Z,-1.74
2023-02-08T07:31:18.321Z,-1.62
2023-02-08T07:36:19.844Z,-1.54
2023-02-08T07:41:21.448Z,-1.48
2023-02-08T07:46:23.308Z,-1.31
2023-02-08T07:51:25.002Z,-1.02
2023-02-08T07:56:26.707Z,0.13
2023-02-08T08:01:28.351Z,0.15
2023-02-08T08:06:29.930Z,-0.50
2023-02-08T08:11:32.136Z,-0.11
2023-02-08T08:16:33.727Z,0.72
2023-02-08T08:21:35.245Z,0.85
2023-02-08T08:26:36.950Z,1.11
2023-02-08T08:31:38.499Z,1.25
2023-02-08T08:36:40.207Z,1.17
2023-02-08T08:41:41.735Z,1.22
2023-02-08T08:46:43.360Z,1.51
2023-02-08T08:51:47.140Z,1.83
2023-02-08T08:56:48.664Z,2.21
2023-02-08T09:01:50.314Z,2.35
2023-02-08T09:06:53.525Z,2.64
2023-02-08T09:11:55.077Z,2.70
2023-02-08T09:16:56.682Z,2.59
2023-02-08T09:21:58.208Z,2.94
2023-02-08T09:26:59.869Z,3.25
2023-02-08T09:32:01.567Z,3.30
2023-02-08T09:37:03.200Z,3.35
2023-02-08T09:42:39.441Z,3.67
2023-02-08T09:48:00.253Z,4.04
2023-02-08T09:53:30.654Z,4.47
2023-02-08T09:58:41.295Z,5.76
2023-02-08T10:03:44.920Z,5.01
2023-02-08T10:08:49.754Z,5.40
2023-02-08T10:13:57.112Z,5.00
2023-02-08T10:19:22.929Z,4.98
2023-02-08T10:24:47.356Z,5.11
2023-02-08T10:29:58.014Z,5.05
2023-02-08T10:35:06.455Z,5.54
2023-02-08T10:40:26.744Z,5.78
2023-02-08T10:45:39.834Z,5.68
2023-02-08T10:50:44.189Z,6.15
2023-02-08T10:55:48.000Z,6.13
2023-02-08T11:00:50.051Z,6.24
2023-02-08T11:05:52.641Z,6.61
2023-02-08T11:11:08.825Z,7.06
2023-02-08T11:16:22.268Z,6.80
2023-02-08T11:21:30.683Z,8.45
2023-02-08T11:26:38.460Z,7.77
2023-02-08T11:31:55.841Z,8.89
2023-02-08T11:36:59.172Z,9.23
2023-02-08T11:42:02.255Z,10.45
2023-02-08T11:47:08.397Z,10.25
2023-02-08T11:52:22.165Z,10.11
2023-02-08T11:57:26.369Z,11.07
2023-02-08T12:02:39.879Z,10.40
2023-02-08T12:08:04.176Z,10.02
2023-02-08T12:13:35.772Z,10.27
2023-02-08T12:19:16.407Z,8.45
2023-02-08T12:24:45.747Z,9.35
2023-02-08T12:30:06.034Z,9.82
2023-02-08T12:35:13.433Z,9.53
2023-02-08T12:40:42.320Z,8.65
2023-02-08T12:46:03.242Z,9.67
2023-02-08T12:51:16.949Z,10.34
2023-02-08T12:56:23.783Z,8.97
2023-02-08T13:01:41.684Z,9.31
2023-02-08T13:06:47.175Z,9.09
2023-02-08T13:11:51.408Z,9.22
2023-02-08T13:16:58.277Z,9.04
2023-02-08T13:22:00.603Z,8.95
2023-02-08T13:27:02.525Z,9.09
2023-02-08T13:32:14.569Z,9.53
2023-02-08T13:37:25.765Z,9.20
2023-02-08T13:42:39.778Z,8.93
2023-02-08T13:47:48.647Z,9.60
2023-02-08T13:52:51.190Z,9.68
2023-02-08T13:57:55.191Z,9.26
2023-02-08T14:03:15.201Z,9.21
2023-02-08T14:08:43.079Z,9.21
2023-02-08T14:14:12.910Z,9.31
2023-02-08T14:19:17.484Z,9.57
2023-02-08T14:24:27.014Z,9.45
2023-02-08T14:29:28.636Z,9.21
2023-02-08T14:34:37.777Z,9.32
2023-02-08T14:39:39.654Z,8.69
2023-02-08T14:44:41.208Z,9.04
2023-02-08T14:49:44.762Z,8.66
2023-02-08T14:55:07.876Z,9.09
2023-02-08T15:00:26.892Z,8.85
2023-02-08T15:05:35.694Z,8.38
2023-02-08T15:10:42.259Z,8.41
2023-02-08T15:15:44.447Z,8.32
2023-02-08T15:20:53.744Z,8.33
2023-02-08T15:26:06.301Z,8.23
2023-02-08T15:31:14.689Z,7.96
2023-02-08T15:36:29.486Z,7.88
2023-02-08T15:41:33.867Z,7.60
2023-02-08T15:46:37.099Z,7.21
2023-02-08T15:51:38.722Z,7.08
2023-02-08T15:56:42.386Z,6.78
2023-02-08T16:01:47.829Z,6.50
2023-02-08T16:06:53.207Z,6.20
2023-02-08T16:12:00.333Z,6.04
2023-02-08T16:17:02.004Z,5.96
2023-02-08T16:22:12.947Z,5.59
2023-02-08T16:27:24.370Z,5.26
2023-02-08T16:32:33.426Z,4.88
2023-02-08T16:37:35.272Z,4.86
2023-02-08T16:42:38.817Z,4.92
2023-02-08T16:47:48.365Z,4.88
2023-02-08T16:53:02.413Z,4.80
2023-02-08T16:58:04.036Z,4.61
2023-02-08T17:03:05.622Z,4.39
2023-02-08T17:08:12.692Z,3.59
2023-02-08T17:13:20.433Z,3.75
2023-02-08T17:18:22.823Z,3.96
2023-02-08T17:23:24.705Z,3.50
2023-02-08T17:28:27.172Z,3.15
2023-02-08T17:33:28.794Z,2.99
2023-02-08T17:38:30.383Z,2.93
2023-02-08T17:43:32.221Z,2.61
2023-02-08T17:48:33.722Z,2.69
2023-02-08T17:53:35.232Z,2.68
2023-02-08T17:58:36.942Z,2.57
2023-02-08T18:03:38.530Z,3.04
2023-02-08T18:08:40.659Z,3.24
2023-02-08T18:13:42.263Z,3.07
2023-02-08T18:18:44.324Z,3.00
2023-02-08T18:23:46.963Z,2.87
2023-02-08T18:28:48.584Z,2.78
2023-02-08T18:33:50.415Z,2.82
2023-02-08T18:38:53.448Z,2.63
2023-02-08T18:43:56.686Z,2.55
2023-02-08T18:48:58.260Z,2.27
2023-02-08T18:53:59.838Z,1.96
2023-02-08T18:59:04.084Z,1.89
2023-02-08T19:04:06.112Z,1.75
2023-02-08T19:09:08.620Z,1.63
2023-02-08T19:14:12.940Z,1.55
2023-02-08T19:19:14.472Z,1.47
2023-02-08T19:24:16.078Z,1.48
2023-02-08T19:29:18.908Z,1.46
2023-02-08T19:34:20.679Z,1.74
2023-02-08T19:39:25.691Z,2.08
2023-02-08T19:44:30.253Z,2.12
2023-02-08T19:49:32.257Z,1.83
2023-02-08T19:54:33.822Z,1.22
2023-02-08T19:59:35.564Z,1.71
2023-02-08T20:04:37.755Z,1.81
2023-02-08T20:09:39.336Z,1.68
2023-02-08T20:14:40.909Z,1.37
2023-02-08T20:19:42.504Z,1.07
2023-02-08T20:24:44.044Z,1.13
2023-02-08T20:29:45.619Z,0.81
2023-02-08T20:34:58.344Z,0.71
2023-02-08T20:40:00.878Z,1.31
2023-02-08T20:45:02.793Z,1.11
2023-02-08T20:50:16.849Z,0.87
2023-02-08T20:55:20.299Z,1.01
2023-02-08T21:00:24.209Z,1.24
2023-02-08T21:05:29.696Z,1.51
2023-02-08T21:10:31.252Z,1.61
2023-02-08T21:15:32.917Z,1.34
2023-02-08T21:20:37.676Z,0.96
2023-02-08T21:25:39.822Z,1.10
2023-02-08T21:30:41.460Z,1.02
2023-02-08T21:35:43.062Z,0.64
2023-02-08T21:40:44.816Z,-0.07
2023-02-08T21:45:46.491Z,-0.39
2023-02-08T21:50:48.044Z,0.67
2023-02-08T21:55:49.629Z,0.21
2023-02-08T22:00:51.125Z,-0.23
2023-02-08T22:05:52.858Z,0.50
2023-02-08T22:10:58.516Z,0.49
2023-02-08T22:16:00.695Z,0.11
2023-02-08T22:21:04.166Z,-0.46
2023-02-08T22:26:09.100Z,-0.81
2023-02-08T22:31:13.149Z,-0.61
2023-02-08T22:36:14.739Z,-1.00
2023-02-08T22:41:17.003Z,-1.26
2023-02-08T22:46:18.751Z,-1.10
2023-02-08T22:51:20.535Z,-0.48
2023-02-08T22:56:22.195Z,-0.31
2023-02-08T23:01:23.933Z,-0.12
2023-02-08T23:06:25.599Z,-0.14
2023-02-08T23:11:27.758Z,0.13
2023-02-08T23:16:29.447Z,0.33
2023-02-08T23:21:31.098Z,0.03
2023-02-08T23:26:32.823Z,-0.22
2023-02-08T23:31:34.596Z,0.19
2023-02-08T23:36:36.258Z,0.22
2023-02-08T23:41:37.855Z,-0.14
2023-02-08T23:46:39.996Z,-0.31
2023-02-08T23:51:41.582Z,-0.41
2023-02-08T23:56:43.105Z,-0.20
